Time;durP1;ratioP1;P1;durP2;ratioP2;P2;SDS_P1;SDS_P2;PMS_P1;PMS_P2;Temp;Humidity;BMP_temperature;BMP_pressure;BME280_temperature;BME280_humidity;BME280_pressure;Samples;Min_cycle;Max_cycle;Signal;HPM_P1;HPM_P2
2022/11/06 00:01:31;;;;;;;21.53;13.73;;;;;;;7.37;54.06;100213.97;10339614;28;20236;-69
2022/11/06 00:06:48;;;;;;;14.93;12.30;;;;;;;7.61;54.64;100196.53;10323885;28;20250;-68
2022/11/06 00:11:51;;;;;;;15.03;11.10;;;;;;;7.46;55.27;100189.09;10357109;28;20247;-66
2022/11/06 00:16:53;;;;;;;17.23;11.40;;;;;;;8.30;53.91;100165.47;10353473;28;20233;-68
2022/11/06 00:21:55;;;;;;;15.87;12.07;;;;;;;8.48;52.65;100168.06;10352546;28;20749;-68
2022/11/06 00:26:56;;;;;;;16.60;11.93;;;;;;;9.17;51.35;100142.03;10324390;28;20403;-68
2022/11/06 00:31:58;;;;;;;21.03;12.57;;;;;;;9.44;50.10;100156.06;10353027;28;20298;-68
2022/11/06 00:37:00;;;;;;;17.63;13.50;;;;;;;8.97;51.31;100197.56;10344616;28;20229;-67
2022/11/06 00:42:01;;;;;;;17.93;12.47;;;;;;;9.18;50.91;100170.41;10339375;28;20241;-68
2022/11/06 00:47:03;;;;;;;21.23;15.40;;;;;;;9.12;52.44;100149.72;10358432;28;20832;-69
2022/11/06 00:52:04;;;;;;;23.23;14.93;;;;;;;9.93;50.05;100137.28;10349255;28;20311;-68
2022/11/06 00:57:06;;;;;;;18.87;13.53;;;;;;;9.01;50.95;100203.41;10351825;28;20236;-68
2022/11/06 01:02:08;;;;;;;17.47;12.97;;;;;;;6.91;57.12;100168.78;10373218;28;20228;-68
2022/11/06 01:07:09;;;;;;;21.73;13.80;;;;;;;6.92;55.49;100183.78;10461943;28;20327;-68
2022/11/06 01:12:11;;;;;;;34.30;14.57;;;;;;;6.74;55.90;100169.59;10490835;28;20639;-69
2022/11/06 01:17:14;;;;;;;52.43;15.50;;;;;;;6.75;55.80;100181.88;10276034;28;20236;-68
2022/11/06 01:22:16;;;;;;;49.00;14.07;;;;;;;7.24;55.14;100184.22;10135950;29;20243;-68
2022/11/06 01:32:49;;;;;;;18.33;12.17;;;;;;;6.95;56.80;100164.88;10569742;27;1593532;-34
2022/11/06 01:37:51;;;;;;;14.17;11.63;;;;;;;6.94;55.88;100149.03;10519717;28;20232;-41
2022/11/06 01:42:52;;;;;;;22.90;11.13;;;;;;;7.06;54.58;100136.34;10521408;28;20226;-42
2022/11/06 01:47:54;;;;;;;34.37;12.00;;;;;;;6.04;57.28;100136.38;10522983;28;20230;-42
2022/11/06 01:52:59;;;;;;;128.97;13.37;;;;;;;4.50;59.41;100115.94;10536737;28;20734;-41
2022/11/06 01:58:04;;;;;;;44.73;11.27;;;;;;;4.39;59.45;100114.25;10522603;28;20244;-43
2022/11/06 02:03:06;;;;;;;86.80;12.00;;;;;;;5.82;57.00;100072.97;10519984;28;20241;-42
2022/11/06 02:08:11;;;;;;;147.17;13.20;;;;;;;5.83;58.22;100021.53;10522576;28;20699;-40
2022/11/06 02:13:23;;;;;;;53.93;12.27;;;;;;;7.38;53.16;100061.22;10512497;27;20242;-42
2022/11/06 02:18:33;;;;;;;59.87;12.33;;;;;;;7.21;54.84;100054.97;10521853;28;20589;-42
2022/11/06 02:23:42;;;;;;;98.17;13.37;;;;;;;6.34;55.08;100110.47;10517884;28;20247;-41
2022/11/06 02:28:52;;;;;;;105.03;13.43;;;;;;;5.57;57.60;100095.66;10518165;28;20230;-43
2022/11/06 02:33:58;;;;;;;130.53;13.80;;;;;;;6.88;55.69;100048.53;10490713;28;20240;-40
2022/11/06 02:39:06;;;;;;;161.87;14.20;;;;;;;6.28;57.93;100044.66;10475932;28;20220;-39
2022/11/06 02:44:13;;;;;;;67.27;11.10;;;;;;;5.67;58.54;100081.44;10454411;28;20245;-40
2022/11/06 02:49:36;;;;;;;47.13;10.50;;;;;;;7.17;55.79;100019.84;10446486;28;20254;-42
2022/11/06 02:54:45;;;;;;;31.90;11.43;;;;;;;8.74;51.94;100021.25;10449857;28;20235;-43
2022/11/06 03:00:01;;;;;;;112.33;12.93;;;;;;;8.19;52.17;100075.97;10441824;28;20600;-42
2022/11/06 03:05:16;;;;;;;42.77;10.67;;;;;;;7.73;52.13;100094.06;10447181;28;20242;-43
2022/11/06 03:10:18;;;;;;;50.37;11.23;;;;;;;5.86;56.23;100104.41;10444562;28;20233;-42
2022/11/06 03:16:00;;;;;;;31.67;10.70;;;;;;;5.79;56.58;100091.84;10450298;28;20460;-40
2022/11/06 03:21:18;;;;;;;32.57;9.93;;;;;;;5.81;55.70;100076.63;10448893;28;20243;-42
2022/11/06 03:26:34;;;;;;;43.93;10.87;;;;;;;6.82;54.32;100034.06;10439310;28;20736;-44
2022/11/06 03:31:43;;;;;;;78.67;12.63;;;;;;;5.97;55.75;100071.50;10446669;28;20237;-42
2022/11/06 03:36:52;;;;;;;72.43;13.20;;;;;;;5.71;56.38;100066.03;10490624;28;20253;-42
2022/11/06 03:42:05;;;;;;;20.97;9.77;;;;;;;4.82;57.81;100053.06;10486615;28;20230;-43
2022/11/06 03:47:37;;;;;;;20.33;8.70;;;;;;;4.37;57.75;100039.38;10478534;28;20242;-42
2022/11/06 03:52:44;;;;;;;24.60;9.03;;;;;;;6.38;53.81;99978.97;10472008;28;20242;-43
2022/11/06 03:57:56;;;;;;;7.90;7.00;;;;;;;7.97;50.50;99973.47;10481305;28;20230;-41
2022/11/06 04:03:05;;;;;;;21.67;8.50;;;;;;;6.48;52.56;100048.00;10485115;28;20735;-42
2022/11/06 04:18:52;;;;;;;14.30;7.80;;;;;;;7.89;49.84;100064.03;10480356;28;20238;-43
2022/11/06 04:29:58;;;;;;;27.00;9.00;;;;;;;7.89;50.01;100064.03;10481961;28;20222;-45
2022/11/06 04:35:21;;;;;;;57.30;10.20;;;;;;;7.43;50.57;100106.84;10484522;28;20692;-42
2022/11/06 04:40:30;;;;;;;95.83;11.37;;;;;;;6.09;53.00;100135.91;10478093;28;20234;-43
2022/11/06 04:45:38;;;;;;;98.97;11.33;;;;;;;7.57;50.28;100102.78;10483707;28;20239;-43
2022/11/06 04:50:51;;;;;;;68.53;10.90;;;;;;;6.69;53.61;100076.94;10466780;28;20452;-42
2022/11/06 04:56:05;;;;;;;53.60;10.30;;;;;;;7.52;51.16;100063.31;10483222;28;20231;-43
2022/11/06 05:01:07;;;;;;;19.87;9.20;;;;;;;8.10;49.39;100053.78;10476769;28;20238;-43
2022/11/06 05:06:09;;;;;;;48.27;9.40;;;;;;;6.23;52.19;100135.44;10484152;28;20724;-43
2022/11/06 05:11:11;;;;;;;29.00;8.27;;;;;;;7.28;50.80;100101.25;10480502;28;20282;-43
2022/11/06 05:16:12;;;;;;;29.70;7.80;;;;;;;7.42;50.65;100104.34;10482812;28;20251;-43
2022/11/06 05:26:34;;;;;;;49.57;7.27;;;;;;;4.30;56.27;100098.31;10483554;28;20647;-43
2022/11/06 05:31:36;;;;;;;29.77;8.23;;;;;;;6.21;53.28;100073.63;10478570;28;20288;-45
2022/11/06 05:36:38;;;;;;;10.80;7.17;;;;;;;6.63;51.45;100046.50;10481950;28;20723;-43
2022/11/06 05:41:39;;;;;;;25.17;7.50;;;;;;;5.32;53.37;100103.28;10482002;28;20249;-43
2022/11/06 05:46:41;;;;;;;28.20;8.63;;;;;;;6.56;52.16;100017.97;10474355;28;20308;-43
2022/11/06 05:51:49;;;;;;;30.87;8.20;;;;;;;5.16;53.19;100097.72;10481561;28;20334;-43
2022/11/06 05:56:51;;;;;;;23.90;8.47;;;;;;;6.63;52.30;99998.63;10481947;28;20265;-43
2022/11/06 06:01:53;;;;;;;39.87;9.60;;;;;;;6.97;51.35;100008.56;10482836;28;20672;-43
2022/11/06 06:06:54;;;;;;;42.10;8.90;;;;;;;6.89;50.66;100021.78;10480632;28;20592;-43
2022/11/06 06:11:56;;;;;;;143.20;11.83;;;;;;;4.53;56.54;100046.78;10478150;28;20252;-43
2022/11/06 06:16:58;;;;;;;126.53;11.50;;;;;;;4.47;56.76;100039.38;10483103;28;20239;-43
2022/11/06 06:21:59;;;;;;;221.20;15.10;;;;;;;4.73;57.86;100001.72;10491218;28;20234;-44
2022/11/06 06:27:01;;;;;;;242.60;15.37;;;;;;;3.80;61.08;99978.19;10486454;28;20700;-41
2022/11/06 06:32:03;;;;;;;180.53;12.93;;;;;;;5.50;56.84;99921.06;10486560;28;20248;-43
2022/11/06 06:37:05;;;;;;;89.43;10.30;;;;;;;5.73;57.10;99872.06;10490338;28;20245;-43
2022/11/06 06:42:07;;;;;;;96.03;9.40;;;;;;;3.86;59.88;99945.00;10488219;28;20235;-43
2022/11/06 06:47:08;;;;;;;39.47;8.90;;;;;;;7.02;53.56;99831.63;10487959;28;20617;-43
2022/11/06 06:52:10;;;;;;;130.33;10.93;;;;;;;5.12;55.11;99956.56;10489507;28;20254;-41
2022/11/06 06:57:12;;;;;;;11.20;6.43;;;;;;;6.89;51.88;99899.41;10487828;28;20278;-42
2022/11/06 07:02:13;;;;;;;26.73;7.03;;;;;;;6.12;53.49;99924.88;10488114;28;20644;-44
2022/11/06 07:07:15;;;;;;;7.37;6.13;;;;;;;7.35;51.13;99857.38;10491499;28;20685;-43
2022/11/06 07:12:17;;;;;;;7.93;6.17;;;;;;;7.66;50.48;99850.63;10487734;28;20726;-43
2022/11/06 07:17:19;;;;;;;9.10;7.73;;;;;;;7.38;50.53;99872.19;10487451;28;20750;-43
2022/11/06 07:22:20;;;;;;;124.50;10.50;;;;;;;5.48;52.92;99962.00;10489432;28;20239;-44
2022/11/06 07:27:35;;;;;;;6.07;5.47;;;;;;;5.40;54.24;99946.81;10483745;28;20223;-44
2022/11/06 07:32:37;;;;;;;22.33;6.77;;;;;;;5.45;55.28;99927.78;10487753;28;20443;-43
2022/11/06 07:37:39;;;;;;;80.30;9.73;;;;;;;3.98;58.53;99930.66;10483373;28;20357;-42
2022/11/06 07:42:40;;;;;;;78.87;9.13;;;;;;;4.56;57.67;99921.09;10486181;28;20756;-42
2022/11/06 07:47:44;;;;;;;66.97;9.33;;;;;;;3.79;60.30;99939.44;10481354;28;20525;-42
2022/11/06 07:52:45;;;;;;;12.97;8.73;;;;;;;3.92;59.79;99944.47;10482399;28;20243;-42
2022/11/06 07:57:47;;;;;;;15.10;8.33;;;;;;;4.43;59.33;99923.22;10484791;28;20252;-42
2022/11/06 08:02:52;;;;;;;32.27;10.13;;;;;;;3.63;61.40;99939.97;10485933;28;20233;-42
2022/11/06 08:07:57;;;;;;;16.57;9.33;;;;;;;3.43;62.14;99957.56;10482583;28;20236;-42
2022/11/06 08:12:59;;;;;;;19.60;8.83;;;;;;;3.47;61.44;99942.28;10461486;28;20242;-44
2022/11/06 08:18:01;;;;;;;38.47;12.17;;;;;;;4.22;61.34;99868.50;10484158;28;20225;-43
2022/11/06 08:23:05;;;;;;;86.60;14.70;;;;;;;5.02;58.83;99847.00;10470823;28;20723;-43
2022/11/06 08:28:07;;;;;;;16.43;12.40;;;;;;;7.94;53.26;99845.06;10479440;28;20284;-42
2022/11/06 08:33:09;;;;;;;13.57;11.03;;;;;;;6.08;56.38;99929.69;10480368;28;20243;-42
2022/11/06 08:38:11;;;;;;;18.47;11.37;;;;;;;8.42;52.91;99833.53;10484002;28;20237;-42
2022/11/06 08:43:13;;;;;;;14.23;12.10;;;;;;;8.80;51.37;99873.78;10480512;28;20591;-42
2022/11/06 08:48:16;;;;;;;15.50;12.13;;;;;;;8.64;52.35;99856.00;10485912;28;20585;-44
2022/11/06 08:53:17;;;;;;;14.53;11.77;;;;;;;8.88;50.90;99888.16;10476903;28;20243;-43
2022/11/06 08:58:19;;;;;;;19.17;13.80;;;;;;;9.10;51.54;99871.41;10483301;28;20727;-43
2022/11/06 09:03:21;;;;;;;17.30;12.83;;;;;;;8.65;52.90;99900.31;10483640;28;20246;-43
2022/11/06 09:08:23;;;;;;;14.77;11.03;;;;;;;8.12;55.48;99877.72;10482920;28;20256;-43
2022/11/06 09:13:25;;;;;;;12.93;9.83;;;;;;;6.89;57.23;99909.25;10482333;28;20231;-42
2022/11/06 09:18:27;;;;;;;13.43;10.63;;;;;;;7.45;56.81;99878.53;10481286;28;20285;-42
2022/11/06 09:23:28;;;;;;;12.77;9.63;;;;;;;6.39;57.60;99931.94;10481433;28;20245;-42
2022/11/06 09:28:30;;;;;;;9.73;8.60;;;;;;;6.72;57.24;99874.53;10480880;28;20231;-41
2022/11/06 09:33:32;;;;;;;9.17;8.03;;;;;;;8.05;55.66;99797.59;10474067;28;20235;-43
2022/11/06 09:38:33;;;;;;;8.40;7.47;;;;;;;9.54;51.87;99790.72;10482165;28;20747;-43
2022/11/06 09:44:02;;;;;;;10.60;7.03;;;;;;;8.85;52.75;99860.75;10437110;28;20228;-42
2022/11/06 09:49:28;;;;;;;11.63;8.27;;;;;;;8.97;52.54;99839.09;10431724;28;20318;-43
2022/11/06 09:54:42;;;;;;;7.23;6.53;;;;;;;9.47;50.96;99850.38;10445291;28;20424;-44
2022/11/06 09:59:45;;;;;;;7.60;6.90;;;;;;;9.99;50.73;99820.34;10445682;28;20679;-42
2022/11/06 10:05:14;;;;;;;10.40;7.27;;;;;;;9.51;50.67;99851.69;10448630;28;20231;-42
2022/11/06 10:10:19;;;;;;;10.90;9.00;;;;;;;9.54;51.78;99817.44;10486305;28;20234;-42
2022/11/06 10:15:26;;;;;;;11.40;7.97;;;;;;;8.91;52.23;99824.59;10489640;28;20224;-42
2022/11/06 10:20:42;;;;;;;9.93;8.93;;;;;;;7.83;54.56;99830.16;10488713;28;20232;-43
2022/11/06 10:25:56;;;;;;;10.70;8.97;;;;;;;9.39;51.83;99798.66;10491559;28;20234;-42
2022/11/06 10:31:06;;;;;;;17.27;13.20;;;;;;;9.03;52.97;99767.16;10487723;28;20234;-43
2022/11/06 10:36:22;;;;;;;12.37;10.17;;;;;;;10.00;51.39;99728.41;10472393;28;20747;-42
2022/11/06 10:41:29;;;;;;;10.90;8.90;;;;;;;9.03;53.51;99735.13;10487452;28;20607;-42
2022/11/06 10:46:41;;;;;;;9.80;8.20;;;;;;;8.19;54.49;99776.59;10489608;28;20406;-42
2022/11/06 10:52:09;;;;;;;11.50;8.23;;;;;;;8.78;52.83;99782.41;10490320;28;20234;-43
2022/11/06 10:57:35;;;;;;;12.87;8.83;;;;;;;8.74;53.69;99740.25;10471570;28;20243;-43
2022/11/06 11:06:10;;;;;;;11.07;8.90;;;;;;;6.56;58.06;99701.59;10475999;28;21528;-69
2022/11/06 11:11:12;;;;;;;11.60;9.00;;;;;;;6.24;59.94;99697.78;10465402;27;20893;-68
2022/11/06 11:16:17;;;;;;;10.20;9.10;;;;;;;8.23;57.17;99615.28;10432320;28;20643;-68
2022/11/06 11:21:19;;;;;;;11.30;10.03;;;;;;;6.28;59.56;99685.00;10409958;28;20658;-68
2022/11/06 11:26:27;;;;;;;11.50;8.77;;;;;;;8.37;55.93;99614.56;10408205;28;20785;-67
2022/11/06 11:31:32;;;;;;;10.67;9.57;;;;;;;9.28;54.56;99608.63;10391277;28;20235;-67
2022/11/06 11:36:47;;;;;;;11.13;8.40;;;;;;;9.01;53.34;99635.72;10407377;28;20297;-67
2022/11/06 11:41:49;;;;;;;11.03;9.67;;;;;;;8.80;55.16;99630.97;10429581;28;20714;-67
2022/11/06 11:46:52;;;;;;;11.90;10.70;;;;;;;7.44;58.19;99637.28;10381582;28;20212;-67
2022/11/06 11:51:57;;;;;;;11.53;10.33;;;;;;;7.32;58.69;99623.44;10399772;28;20220;-66
2022/11/06 11:57:10;;;;;;;12.53;10.73;;;;;;;7.06;58.41;99620.94;10365723;28;20708;-68
2022/11/06 12:02:17;;;;;;;12.43;9.40;;;;;;;7.67;56.00;99625.91;10379269;28;20931;-66
2022/11/06 12:07:40;;;;;;;9.50;8.50;;;;;;;7.93;55.87;99609.72;10373709;28;20228;-67
2022/11/06 12:12:51;;;;;;;11.33;9.13;;;;;;;7.36;57.04;99616.78;10362465;28;20236;-66
2022/11/06 12:18:04;;;;;;;10.40;9.23;;;;;;;6.90;58.03;99627.09;10320259;28;20344;-65
2022/11/06 12:23:15;;;;;;;9.97;8.90;;;;;;;7.81;57.18;99590.56;10328834;28;20241;-67
2022/11/06 12:28:18;;;;;;;9.83;8.40;;;;;;;8.88;55.38;99542.09;10351923;28;20763;-68
2022/11/06 12:33:23;;;;;;;9.40;8.07;;;;;;;7.65;57.12;99582.66;10342142;28;20275;-67
2022/11/06 12:39:00;;;;;;;9.70;8.63;;;;;;;8.14;56.29;99569.19;10372766;28;20314;-67
2022/11/06 12:44:02;;;;;;;9.00;7.40;;;;;;;9.07;53.47;99559.44;10374184;28;20236;-67
2022/11/06 12:49:16;;;;;;;9.17;8.20;;;;;;;8.14;55.96;99571.03;10371683;28;20221;-67
2022/11/06 12:54:45;;;;;;;14.63;9.27;;;;;;;8.31;55.22;99551.25;10386934;28;20282;-67
2022/11/06 13:00:04;;;;;;;10.87;8.30;;;;;;;8.48;54.96;99568.00;10400904;28;20302;-67
2022/11/06 13:05:13;;;;;;;10.07;8.40;;;;;;;8.50;55.66;99562.50;10378576;28;20286;-69
2022/11/06 13:10:22;;;;;;;9.83;8.83;;;;;;;9.11;54.52;99541.22;10367356;28;20225;-66
2022/11/06 13:15:32;;;;;;;8.47;7.57;;;;;;;9.70;52.06;99560.00;10365265;28;20225;-65
2022/11/06 13:20:55;;;;;;;9.37;8.30;;;;;;;8.36;55.07;99575.56;10382811;28;20237;-65
2022/11/06 13:26:06;;;;;;;11.10;7.93;;;;;;;11.01;51.18;99490.47;10356086;28;20236;-68
2022/11/06 13:31:10;;;;;;;9.70;7.70;;;;;;;11.24;49.76;99498.25;10371615;28;20249;-65
2022/11/06 13:36:13;;;;;;;10.77;8.20;;;;;;;10.28;50.90;99552.13;10377247;28;20544;-67
2022/11/06 13:41:22;;;;;;;8.80;7.80;;;;;;;10.53;51.01;99538.41;10391774;28;20237;-68
2022/11/06 13:46:24;;;;;;;11.37;8.57;;;;;;;9.53;52.80;99578.03;10389894;28;21070;-66
2022/11/06 13:51:36;;;;;;;12.67;10.13;;;;;;;10.33;51.64;99551.56;10389425;28;20263;-67
2022/11/06 13:57:08;;;;;;;12.00;9.40;;;;;;;10.11;51.84;99580.09;10372477;28;20654;-65
2022/11/06 14:02:24;;;;;;;12.27;9.17;;;;;;;10.00;51.98;99572.53;10387576;28;20240;-66
2022/11/06 14:07:29;;;;;;;11.73;9.33;;;;;;;10.68;51.08;99539.16;10379268;28;20673;-67
2022/11/06 14:12:31;;;;;;;8.63;7.70;;;;;;;9.98;52.54;99553.19;10370569;28;20224;-65
2022/11/06 14:17:32;;;;;;;10.33;9.27;;;;;;;11.09;50.48;99513.59;10370168;28;20664;-68
2022/11/06 14:22:36;;;;;;;11.73;8.40;;;;;;;9.92;52.81;99558.28;10367185;28;20306;-66
2022/11/06 14:27:38;;;;;;;12.70;10.30;;;;;;;11.48;49.87;99501.50;10383001;28;20235;-67
2022/11/06 14:32:43;;;;;;;10.00;8.43;;;;;;;9.37;52.78;99522.13;10395458;28;20302;-68
2022/11/06 14:37:46;;;;;;;11.63;9.93;;;;;;;11.97;48.57;99479.06;10366892;28;20236;-70
2022/11/06 14:42:47;;;;;;;12.87;10.07;;;;;;;11.39;49.17;99521.44;10381415;28;20232;-67
2022/11/06 14:47:55;;;;;;;18.30;13.17;;;;;;;11.25;50.34;99537.44;10393906;28;20279;-67
2022/11/06 14:53:03;;;;;;;13.27;10.03;;;;;;;9.72;52.63;99573.16;10384720;28;20700;-67
2022/11/06 14:58:19;;;;;;;9.27;8.23;;;;;;;9.67;53.31;99547.00;10373351;28;20275;-66
2022/11/06 15:03:30;;;;;;;10.07;8.97;;;;;;;11.51;50.08;99505.66;10360840;28;20578;-67
2022/11/06 15:09:00;;;;;;;14.47;12.07;;;;;;;10.55;51.95;99563.13;10379843;28;20241;-69
2022/11/06 15:14:02;;;;;;;11.23;8.97;;;;;;;10.94;50.82;99529.75;10365793;28;20233;-69
2022/11/06 15:19:32;;;;;;;15.00;10.93;;;;;;;11.62;49.44;99513.13;10359291;28;20233;-68
2022/11/06 15:24:42;;;;;;;9.80;8.70;;;;;;;12.15;47.73;99502.66;10355778;28;20229;-69
2022/11/06 15:29:47;;;;;;;36.83;19.67;;;;;;;12.28;47.92;99468.84;10365588;28;20756;-65
2022/11/06 15:34:54;;;;;;;11.10;9.27;;;;;;;10.09;52.06;99528.63;10363041;28;20233;-69
2022/11/06 15:39:57;;;;;;;10.70;7.37;;;;;;;9.87;52.60;99527.75;10358592;28;20287;-69
2022/11/06 15:45:20;;;;;;;8.93;7.70;;;;;;;11.34;49.97;99476.50;10359975;28;20239;-67
2022/11/06 15:50:25;;;;;;;8.53;7.60;;;;;;;10.98;50.72;99490.84;10361857;28;20283;-66
2022/11/06 15:55:31;;;;;;;9.83;8.33;;;;;;;10.12;52.56;99498.84;10384546;28;20233;-68
2022/11/06 16:00:35;;;;;;;10.37;8.70;;;;;;;12.63;48.20;99413.16;10400615;28;20232;-66
2022/11/06 16:05:38;;;;;;;12.43;8.23;;;;;;;12.35;48.06;99443.69;10398210;28;20236;-65
2022/11/06 16:10:42;;;;;;;10.93;9.13;;;;;;;11.75;49.27;99489.09;10403254;28;20284;-68
2022/11/06 16:15:56;;;;;;;12.80;10.00;;;;;;;11.81;49.51;99485.63;10375320;28;20306;-67
2022/11/06 16:21:06;;;;;;;13.30;10.17;;;;;;;12.08;49.31;99460.75;10365464;28;20665;-68
2022/11/06 16:26:12;;;;;;;16.13;13.57;;;;;;;11.30;50.89;99493.97;10375185;28;20373;-68
2022/11/06 16:31:17;;;;;;;17.87;14.00;;;;;;;11.36;50.06;99493.19;10368999;28;20233;-69
2022/11/06 16:36:19;;;;;;;13.03;10.90;;;;;;;11.72;50.23;99454.63;10371164;28;20233;-70
2022/11/06 16:41:56;;;;;;;13.07;11.27;;;;;;;11.67;50.54;99465.13;10364823;28;20229;-66
2022/11/06 16:47:03;;;;;;;15.80;11.30;;;;;;;12.98;48.01;99431.72;10366514;28;20908;-68
2022/11/06 16:52:31;;;;;;;14.13;10.80;;;;;;;10.54;51.62;99523.16;10363193;28;20240;-67
2022/11/06 16:57:42;;;;;;;16.57;12.67;;;;;;;10.79;52.21;99521.78;10361091;28;20233;-67
2022/11/06 17:02:48;;;;;;;18.60;15.70;;;;;;;12.19;49.40;99470.88;10402861;28;20236;-67
2022/11/06 17:08:17;;;;;;;18.00;13.53;;;;;;;12.99;47.77;99467.47;10416793;28;20220;-67
2022/11/06 17:13:32;;;;;;;12.77;11.47;;;;;;;11.77;50.12;99516.50;10405956;28;20667;-67
2022/11/06 17:18:38;;;;;;;15.40;11.33;;;;;;;11.42;50.84;99527.25;10413036;28;20237;-69
2022/11/06 17:23:40;;;;;;;11.73;9.90;;;;;;;10.73;51.49;99540.44;10410947;28;20407;-68
2022/11/06 17:28:41;;;;;;;11.07;9.93;;;;;;;9.56;54.25;99524.22;10388372;28;20262;-67
2022/11/06 17:33:43;;;;;;;20.87;11.97;;;;;;;10.00;54.20;99517.22;10368836;28;20227;-66
2022/11/06 17:38:46;;;;;;;17.63;13.83;;;;;;;8.47;57.96;99508.50;10399039;28;20275;-69
2022/11/06 17:43:48;;;;;;;13.90;11.87;;;;;;;9.63;55.36;99492.25;10383723;28;20852;-68
2022/11/06 17:48:50;;;;;;;11.47;9.70;;;;;;;9.51;55.42;99494.56;10403951;28;20228;-66
2022/11/06 17:53:52;;;;;;;11.87;10.63;;;;;;;8.48;57.62;99483.47;10413571;28;20295;-68
2022/11/06 17:58:54;;;;;;;15.23;11.03;;;;;;;7.55;59.52;99482.47;10416814;28;20249;-67
2022/11/06 18:03:55;;;;;;;11.47;9.00;;;;;;;8.54;57.43;99462.44;10415845;28;20801;-66
2022/11/06 18:08:59;;;;;;;11.27;10.03;;;;;;;9.91;55.08;99417.63;10439521;28;20239;-67
2022/11/06 18:14:01;;;;;;;13.73;10.43;;;;;;;9.21;55.11;99501.72;10435323;28;20236;-67
2022/11/06 18:19:07;;;;;;;10.07;8.97;;;;;;;9.27;55.63;99481.50;10402932;28;20286;-67
2022/11/06 18:24:08;;;;;;;20.73;15.00;;;;;;;8.26;57.21;99516.31;10411953;28;20243;-65
2022/11/06 18:29:12;;;;;;;14.77;10.93;;;;;;;8.32;58.41;99491.63;10415130;28;20241;-68
2022/11/06 18:34:15;;;;;;;11.27;9.50;;;;;;;8.45;57.87;99478.53;10416803;28;20685;-65
2022/11/06 18:39:21;;;;;;;12.40;9.80;;;;;;;8.73;57.55;99459.28;10411104;28;20246;-65
2022/11/06 18:44:22;;;;;;;14.87;8.50;;;;;;;7.96;58.70;99486.00;10418409;28;20770;-65
2022/11/06 18:49:24;;;;;;;12.30;9.27;;;;;;;7.79;59.05;99485.22;10408475;28;20233;-65
2022/11/06 18:54:27;;;;;;;9.30;8.00;;;;;;;9.19;56.61;99429.00;10413537;28;20324;-65
2022/11/06 18:59:29;;;;;;;11.07;9.20;;;;;;;9.31;56.59;99437.38;10408983;28;20239;-66
2022/11/06 19:04:31;;;;;;;10.23;8.67;;;;;;;7.60;59.47;99495.28;10409824;28;20784;-66
2022/11/06 19:09:32;;;;;;;11.70;8.73;;;;;;;8.65;57.77;99472.69;10411431;28;20707;-66
2022/11/06 19:14:34;;;;;;;9.93;7.60;;;;;;;8.40;58.73;99464.06;10410024;28;20282;-66
2022/11/06 19:19:36;;;;;;;8.20;6.97;;;;;;;8.31;58.05;99478.47;10409127;28;20716;-65
2022/11/06 19:24:38;;;;;;;8.60;7.37;;;;;;;9.07;56.92;99447.31;10408958;28;20325;-66
2022/11/06 19:29:39;;;;;;;7.00;6.30;;;;;;;8.67;56.11;99495.53;10420735;28;20232;-65
2022/11/06 19:34:41;;;;;;;6.53;5.20;;;;;;;8.48;55.43;99518.16;10432172;28;20285;-65
2022/11/06 19:39:42;;;;;;;6.40;5.47;;;;;;;8.97;54.16;99508.16;10442671;28;20698;-64
2022/11/06 19:44:44;;;;;;;6.00;4.93;;;;;;;9.15;54.17;99505.97;10428261;28;20225;-67
2022/11/06 19:49:46;;;;;;;5.87;4.60;;;;;;;8.73;54.35;99536.66;10426857;28;20291;-65
2022/11/06 19:54:47;;;;;;;5.17;4.67;;;;;;;9.53;52.22;99537.97;10436013;28;20738;-66
2022/11/06 19:59:49;;;;;;;5.00;4.40;;;;;;;10.12;52.41;99489.00;10445937;28;20259;-65
2022/11/06 20:04:50;;;;;;;5.97;4.80;;;;;;;9.35;52.86;99535.66;10413712;28;20244;-67
2022/11/06 20:09:53;;;;;;;5.67;4.90;;;;;;;9.51;52.92;99536.50;10442385;28;20244;-67
2022/11/06 20:14:54;;;;;;;6.77;4.87;;;;;;;10.38;51.83;99506.34;10415846;28;20279;-67
2022/11/06 20:19:56;;;;;;;7.17;4.37;;;;;;;9.81;52.28;99541.84;10429761;28;20282;-69
2022/11/06 20:24:58;;;;;;;5.30;4.80;;;;;;;10.09;51.82;99537.50;10427027;28;20355;-68
2022/11/06 20:29:59;;;;;;;4.63;4.13;;;;;;;10.17;51.00;99555.28;10444877;28;20285;-68
2022/11/06 20:35:04;;;;;;;6.67;4.13;;;;;;;10.91;50.31;99515.94;10425781;28;20236;-68
2022/11/06 20:40:06;;;;;;;4.60;4.20;;;;;;;11.16;49.14;99535.91;10421141;28;20761;-69
2022/11/06 20:45:08;;;;;;;5.17;3.77;;;;;;;10.24;50.02;99563.38;10437955;28;20262;-66
2022/11/06 20:50:10;;;;;;;4.67;3.63;;;;;;;11.58;48.56;99538.66;10437687;28;20235;-70
2022/11/06 20:55:12;;;;;;;4.73;4.20;;;;;;;11.12;49.02;99577.50;10436449;28;20700;-69
2022/11/06 21:00:14;;;;;;;6.87;4.80;;;;;;;10.74;48.49;99622.38;10436880;28;20236;-69
2022/11/06 21:05:15;;;;;;;5.27;4.07;;;;;;;11.81;47.18;99602.72;10422984;28;20239;-69
2022/11/06 21:10:17;;;;;;;6.57;4.37;;;;;;;11.56;47.76;99646.06;10435694;28;20243;-66
2022/11/06 21:15:18;;;;;;;5.00;4.50;;;;;;;10.99;48.94;99706.72;10442337;28;20237;-69
2022/11/06 21:20:20;;;;;;;6.00;4.20;;;;;;;11.91;48.74;99646.13;10415493;28;20233;-70
2022/11/06 21:25:23;;;;;;;5.00;4.00;;;;;;;11.37;49.71;99665.47;10400106;28;20242;-72
2022/11/06 21:30:25;;;;;;;4.50;4.10;;;;;;;11.92;48.78;99663.03;10429788;28;20268;-72
2022/11/06 21:35:27;;;;;;;6.37;5.23;;;;;;;12.35;48.07;99652.13;10428012;28;20384;-72
2022/11/06 21:40:29;;;;;;;5.37;4.87;;;;;;;12.22;48.68;99662.81;10436703;28;20294;-72
2022/11/06 21:45:31;;;;;;;6.70;4.33;;;;;;;11.10;50.59;99723.28;10437303;28;20234;-71
2022/11/06 21:50:33;;;;;;;5.77;4.70;;;;;;;11.07;51.07;99706.59;10434546;28;20262;-72
2022/11/06 22:00:56;;;;;;;5.50;4.60;;;;;;;10.61;53.55;99693.44;10418614;28;20268;-71
2022/11/06 22:06:10;;;;;;;5.40;4.47;;;;;;;10.38;53.33;99716.81;10427627;28;20233;-74
2022/11/06 22:11:30;;;;;;;5.33;4.37;;;;;;;10.91;53.40;99661.31;10426343;28;20246;-73
2022/11/06 22:16:35;;;;;;;6.17;4.57;;;;;;;9.84;55.87;99693.81;10437954;28;20703;-73
2022/11/06 22:21:38;;;;;;;6.87;4.67;;;;;;;11.34;52.87;99641.72;10433175;28;20237;-71
2022/11/06 22:26:40;;;;;;;6.03;5.03;;;;;;;9.88;55.72;99724.53;10418183;28;20227;-72
2022/11/06 22:31:42;;;;;;;5.23;4.73;;;;;;;10.07;56.99;99670.53;10433711;28;20225;-71
2022/11/06 22:36:43;;;;;;;6.37;4.60;;;;;;;11.29;54.40;99587.91;10399460;28;20205;-74
2022/11/06 22:41:45;;;;;;;4.77;4.27;;;;;;;10.92;54.69;99604.09;10425100;28;20236;-71
2022/11/06 22:46:47;;;;;;;4.23;3.83;;;;;;;12.30;51.11;99612.50;10434263;28;20252;-72
2022/11/06 22:51:48;;;;;;;4.73;4.23;;;;;;;11.41;52.69;99659.53;10427913;28;20236;-72
2022/11/06 22:56:50;;;;;;;6.10;4.73;;;;;;;11.26;52.73;99646.22;10429157;28;20694;-71
2022/11/06 23:01:52;;;;;;;6.87;4.33;;;;;;;10.09;54.39;99683.69;10412636;28;20240;-71
2022/11/06 23:06:53;;;;;;;7.10;4.97;;;;;;;11.58;52.08;99661.94;10423455;28;20231;-70
2022/11/06 23:11:55;;;;;;;6.17;4.60;;;;;;;10.61;53.28;99706.00;10432420;28;20746;-73
2022/11/06 23:16:57;;;;;;;8.07;4.80;;;;;;;9.91;55.26;99692.91;10436943;28;20240;-71
2022/11/06 23:27:19;;;;;;;4.60;4.20;;;;;;;10.77;53.58;99718.41;10414218;28;20244;-73
2022/11/06 23:32:21;;;;;;;5.20;4.70;;;;;;;11.35;53.30;99683.59;10429739;28;20232;-74
2022/11/06 23:37:24;;;;;;;4.93;4.53;;;;;;;9.88;55.44;99714.66;10422458;28;20594;-73
2022/11/06 23:42:26;;;;;;;7.67;5.83;;;;;;;10.77;54.19;99699.66;10436890;28;20291;-73
2022/11/06 23:47:27;;;;;;;5.83;4.97;;;;;;;10.73;54.47;99690.31;10435021;28;20224;-71
2022/11/06 23:52:29;;;;;;;5.23;4.27;;;;;;;11.54;53.49;99640.06;10433384;28;20297;-73
2022/11/06 23:57:31;;;;;;;5.83;4.53;;;;;;;11.12;54.10;99667.69;10430215;28;20231;-72
